Time;durP1;ratioP1;P1;durP2;ratioP2;P2;SDS_P1;SDS_P2;PMS_P1;PMS_P2;Temp;Humidity;BMP_temperature;BMP_pressure;BME280_temperature;BME280_humidity;BME280_pressure;Samples;Min_cycle;Max_cycle;Signal;HPM_P1;HPM_P2
2023/06/06 00:02:03;;;;;;;10.27;2.95;;;;;;;16.33;61.83;101294.16;4973928;28;20517;-61
2023/06/06 00:04:29;;;;;;;5.00;2.85;;;;;;;16.27;62.28;101291.69;4978565;28;20798;-62
2023/06/06 00:06:56;;;;;;;5.43;3.05;;;;;;;16.19;63.01;101291.00;4979239;28;20753;-61
2023/06/06 00:09:22;;;;;;;4.38;2.80;;;;;;;16.13;62.96;101293.75;4973144;28;20096;-61
2023/06/06 00:11:48;;;;;;;6.30;3.28;;;;;;;16.08;63.11;101290.41;4977592;28;20701;-61
2023/06/06 00:14:18;;;;;;;5.13;3.20;;;;;;;16.07;63.30;101295.66;4979739;28;20443;-61
2023/06/06 00:16:48;;;;;;;4.10;3.22;;;;;;;16.06;63.08;101286.97;4978498;28;20100;-62
2023/06/06 00:19:15;;;;;;;5.82;3.15;;;;;;;16.07;62.69;101290.44;4979249;28;20034;-62
2023/06/06 00:21:41;;;;;;;6.35;3.33;;;;;;;16.08;63.07;101276.50;4976236;28;20034;-61
2023/06/06 00:24:07;;;;;;;5.10;2.50;;;;;;;16.07;63.05;101290.44;4978012;28;20060;-61
2023/06/06 00:26:32;;;;;;;6.45;2.90;;;;;;;16.04;63.88;101293.09;4976991;28;20539;-62
2023/06/06 00:28:58;;;;;;;8.13;3.72;;;;;;;15.98;64.93;101299.31;4978291;28;20046;-62
2023/06/06 00:31:23;;;;;;;8.95;2.70;;;;;;;15.92;65.80;101298.59;4974612;28;20490;-61
2023/06/06 00:33:49;;;;;;;6.13;3.63;;;;;;;15.87;66.99;101293.50;4977131;28;20041;-61
2023/06/06 00:36:14;;;;;;;6.53;2.80;;;;;;;15.82;67.41;101291.88;4975150;28;20072;-62
2023/06/06 00:38:40;;;;;;;4.97;3.25;;;;;;;15.73;67.32;101290.31;4978404;28;20128;-62
2023/06/06 00:41:05;;;;;;;5.05;2.75;;;;;;;15.69;67.76;101288.66;4978768;28;20463;-61
2023/06/06 00:43:30;;;;;;;4.93;2.85;;;;;;;15.63;67.92;101288.78;4978456;28;20754;-61
2023/06/06 00:45:56;;;;;;;8.02;3.83;;;;;;;15.58;68.44;101286.22;4976771;28;20030;-61
2023/06/06 00:48:22;;;;;;;4.47;3.20;;;;;;;15.52;68.95;101283.75;4978755;28;20034;-61
2023/06/06 00:50:50;;;;;;;4.30;2.95;;;;;;;15.50;68.83;101271.63;4979468;28;20058;-61
2023/06/06 00:53:16;;;;;;;8.45;2.92;;;;;;;15.50;68.87;101277.72;4978686;28;20454;-61
2023/06/06 00:55:42;;;;;;;3.95;3.15;;;;;;;15.45;69.24;101279.56;4981940;28;20752;-62
2023/06/06 00:58:09;;;;;;;3.88;2.80;;;;;;;15.42;69.29;101281.38;4977986;28;20049;-62
2023/06/06 01:00:37;;;;;;;4.75;3.00;;;;;;;15.36;70.03;101278.88;4974842;28;20081;-61
2023/06/06 01:03:03;;;;;;;3.47;2.80;;;;;;;15.31;69.93;101279.00;4974364;28;20960;-61
2023/06/06 01:05:29;;;;;;;5.45;3.40;;;;;;;15.29;70.35;101277.28;4977023;28;20070;-61
2023/06/06 01:07:56;;;;;;;6.97;3.30;;;;;;;15.23;70.98;101283.47;4974345;28;20468;-61
2023/06/06 01:10:22;;;;;;;5.25;3.72;;;;;;;15.14;71.27;101276.69;4973986;28;20046;-61
2023/06/06 01:13:11;;;;;;;6.88;3.17;;;;;;;15.07;71.30;101282.91;4979468;28;20166;-61
2023/06/06 01:15:47;;;;;;;4.97;3.65;;;;;;;15.02;71.38;101283.84;4976369;28;20077;-62
2023/06/06 01:18:13;;;;;;;5.28;3.60;;;;;;;15.02;71.51;101287.31;4975833;28;20042;-61
2023/06/06 01:20:41;;;;;;;6.75;3.90;;;;;;;15.06;71.44;101283.78;4972786;28;20042;-64
2023/06/06 01:23:12;;;;;;;4.82;3.40;;;;;;;15.10;71.76;101277.66;4980813;28;20078;-61
2023/06/06 01:25:40;;;;;;;6.15;3.60;;;;;;;15.13;71.51;101279.34;4973141;28;20042;-61
2023/06/06 01:28:12;;;;;;;4.15;3.00;;;;;;;15.08;71.74;101276.81;4976470;28;20041;-62
2023/06/06 01:30:40;;;;;;;5.57;3.25;;;;;;;15.05;71.73;101278.59;4977849;28;20411;-61
2023/06/06 01:33:46;;;;;;;4.80;3.50;;;;;;;15.02;72.05;101283.84;4977757;28;20783;-61
2023/06/06 01:36:12;;;;;;;7.53;3.22;;;;;;;14.97;72.52;101283.09;4976535;28;20045;-62
2023/06/06 01:38:45;;;;;;;7.10;3.17;;;;;;;14.90;72.29;101282.34;4981790;28;20038;-61
2023/06/06 01:41:14;;;;;;;5.93;3.88;;;;;;;14.87;72.66;101276.34;4977974;28;20039;-62
2023/06/06 01:43:41;;;;;;;8.10;3.42;;;;;;;14.83;72.59;101278.16;4975419;28;20065;-61
2023/06/06 01:46:07;;;;;;;3.65;3.17;;;;;;;14.78;73.19;101287.75;4974750;28;20092;-62
2023/06/06 01:48:34;;;;;;;5.80;3.47;;;;;;;14.74;73.13;101290.47;4975629;28;20105;-61
2023/06/06 01:51:00;;;;;;;6.95;3.70;;;;;;;14.69;72.84;101302.69;4977229;28;20551;-62
2023/06/06 01:53:25;;;;;;;4.35;3.20;;;;;;;14.64;73.10;101298.41;4976098;28;20046;-61
2023/06/06 01:55:51;;;;;;;4.75;2.92;;;;;;;14.60;72.87;101288.94;4978469;28;20126;-62
2023/06/06 01:58:18;;;;;;;5.07;3.20;;;;;;;14.58;72.50;101288.09;4974101;28;20073;-61
2023/06/06 02:00:44;;;;;;;6.35;3.20;;;;;;;14.56;72.61;101291.63;4975919;28;20037;-62
2023/06/06 02:03:11;;;;;;;6.95;3.70;;;;;;;14.55;72.65;101293.34;4978482;28;20042;-62
2023/06/06 02:05:36;;;;;;;4.82;3.50;;;;;;;14.55;73.00;101298.56;4985640;28;20038;-62
2023/06/06 02:08:03;;;;;;;6.00;3.25;;;;;;;14.55;72.75;101295.97;4982518;28;20046;-61
2023/06/06 02:10:28;;;;;;;5.32;3.45;;;;;;;14.50;72.87;101303.00;4983321;28;20122;-62
2023/06/06 02:12:53;;;;;;;7.00;3.78;;;;;;;14.46;73.27;101301.31;4984436;28;20034;-61
2023/06/06 02:15:19;;;;;;;3.50;2.95;;;;;;;14.44;73.20;101303.09;4982576;28;20105;-61
2023/06/06 02:17:44;;;;;;;4.50;3.60;;;;;;;14.40;73.29;101309.19;4983756;28;20038;-62
2023/06/06 02:20:11;;;;;;;5.93;3.55;;;;;;;14.37;73.43;101303.16;4983359;28;20478;-61
2023/06/06 02:22:37;;;;;;;5.68;3.35;;;;;;;14.31;73.60;101303.25;4983381;28;20049;-62
2023/06/06 02:25:03;;;;;;;6.60;3.53;;;;;;;14.26;73.71;101302.47;4984443;28;20072;-61
2023/06/06 02:27:33;;;;;;;5.65;3.80;;;;;;;14.20;73.76;101305.16;4984433;28;20149;-61
2023/06/06 02:29:58;;;;;;;5.88;4.05;;;;;;;14.13;74.14;101313.03;4981640;28;20053;-61
2023/06/06 02:32:24;;;;;;;6.43;4.22;;;;;;;14.05;74.25;101309.69;4984016;28;20507;-61
2023/06/06 02:34:50;;;;;;;6.95;3.65;;;;;;;13.98;74.26;101300.25;4983355;28;20042;-62
2023/06/06 02:37:15;;;;;;;7.50;4.32;;;;;;;13.93;74.43;101304.66;4984339;28;20038;-62
2023/06/06 02:39:41;;;;;;;6.80;3.78;;;;;;;13.87;74.62;101306.47;4982349;28;20030;-62
2023/06/06 02:42:07;;;;;;;6.15;4.10;;;;;;;13.82;74.75;101303.09;4984740;28;20381;-61
2023/06/06 02:44:33;;;;;;;6.05;4.00;;;;;;;13.80;74.87;101305.69;4983754;28;20034;-62
2023/06/06 02:46:58;;;;;;;7.90;3.60;;;;;;;13.76;75.02;101303.16;4984750;28;20034;-62
2023/06/06 02:49:24;;;;;;;5.60;3.70;;;;;;;13.74;74.94;101305.78;4981811;28;20412;-62
2023/06/06 02:51:49;;;;;;;8.73;4.28;;;;;;;13.71;75.94;101307.56;4979428;28;20022;-61
2023/06/06 02:54:15;;;;;;;6.03;3.60;;;;;;;13.69;75.93;101306.72;4984801;28;20770;-62
2023/06/06 02:56:40;;;;;;;7.00;3.42;;;;;;;13.67;76.10;101309.34;4981396;28;20138;-61
2023/06/06 02:59:07;;;;;;;5.15;3.40;;;;;;;13.63;76.17;101307.66;4983621;28;20053;-61
2023/06/06 03:01:33;;;;;;;5.55;3.67;;;;;;;13.60;76.41;101309.41;4979272;28;20062;-62
2023/06/06 03:03:59;;;;;;;7.25;4.03;;;;;;;13.59;76.28;101305.97;4983596;28;20041;-62
2023/06/06 03:06:24;;;;;;;5.22;3.88;;;;;;;13.57;76.77;101316.38;4977379;28;20046;-62
2023/06/06 03:08:55;;;;;;;5.97;3.83;;;;;;;13.53;76.62;101317.28;4975342;28;20049;-62
2023/06/06 03:11:21;;;;;;;6.13;3.70;;;;;;;13.52;76.76;101319.91;4982680;28;20542;-61
2023/06/06 03:13:46;;;;;;;6.97;3.80;;;;;;;13.50;76.60;101319.09;4983843;28;20069;-62
2023/06/06 03:16:15;;;;;;;7.30;4.75;;;;;;;13.49;76.72;101328.59;4980221;28;20040;-62
2023/06/06 03:18:40;;;;;;;8.13;4.50;;;;;;;13.49;77.04;101331.19;4986241;28;20034;-61
2023/06/06 03:21:05;;;;;;;5.47;3.95;;;;;;;13.47;77.09;101327.72;4975962;28;20042;-61
2023/06/06 03:23:31;;;;;;;6.13;4.00;;;;;;;13.46;77.11;101326.03;4978084;28;20042;-61
2023/06/06 03:25:56;;;;;;;6.70;5.20;;;;;;;13.46;77.47;101326.03;4978820;28;20049;-61
2023/06/06 03:28:22;;;;;;;8.25;4.15;;;;;;;13.47;77.27;101329.50;4979325;28;20121;-61
2023/06/06 03:30:47;;;;;;;7.85;4.43;;;;;;;13.46;77.34;101323.44;4980213;28;20553;-62
2023/06/06 03:33:13;;;;;;;9.93;4.00;;;;;;;13.47;77.40;101329.50;4978020;28;20038;-62
2023/06/06 03:35:38;;;;;;;8.60;4.82;;;;;;;13.47;77.63;101334.69;4980919;28;20065;-62
2023/06/06 03:38:04;;;;;;;6.78;4.22;;;;;;;13.47;77.71;101330.34;4980491;28;20129;-62
2023/06/06 03:40:30;;;;;;;5.68;4.28;;;;;;;13.48;77.70;101321.69;4977900;28;20121;-62
2023/06/06 03:42:56;;;;;;;7.75;4.32;;;;;;;13.52;78.18;101328.56;4981555;28;20042;-61
2023/06/06 03:45:22;;;;;;;8.75;4.65;;;;;;;13.55;78.03;101330.25;4977833;28;20046;-62
2023/06/06 03:47:48;;;;;;;7.38;4.25;;;;;;;13.57;78.10;101329.38;4979440;28;20516;-62
2023/06/06 03:50:14;;;;;;;8.15;4.80;;;;;;;13.63;78.21;101335.34;5012379;28;20042;-62
2023/06/06 03:52:40;;;;;;;8.63;4.63;;;;;;;13.66;78.22;101330.13;4979563;28;20031;-62
2023/06/06 03:55:07;;;;;;;9.10;4.55;;;;;;;13.69;78.24;101332.69;4980899;28;20840;-62
2023/06/06 03:57:33;;;;;;;8.13;4.45;;;;;;;13.73;77.91;101329.19;4975781;28;20054;-62
2023/06/06 03:59:58;;;;;;;6.82;5.13;;;;;;;13.74;78.21;101329.16;4976172;28;20778;-62
2023/06/06 04:02:24;;;;;;;7.55;4.40;;;;;;;13.80;78.00;101330.84;4977713;28;20046;-62
2023/06/06 04:04:50;;;;;;;10.90;4.97;;;;;;;13.84;78.27;101327.31;4976907;28;20093;-61
2023/06/06 04:07:16;;;;;;;7.50;4.60;;;;;;;13.87;78.36;101328.13;4976184;28;20511;-61
2023/06/06 04:09:42;;;;;;;11.57;5.78;;;;;;;13.91;78.63;101329.81;4975143;28;20129;-62
2023/06/06 04:12:08;;;;;;;8.40;5.00;;;;;;;13.95;78.26;101328.06;4979716;28;20841;-62
2023/06/06 04:14:34;;;;;;;8.13;5.68;;;;;;;14.02;78.09;101321.88;4985547;28;20030;-61
2023/06/06 04:17:01;;;;;;;11.43;5.35;;;;;;;14.06;78.22;101327.03;4979456;28;20431;-61
2023/06/06 04:19:27;;;;;;;6.70;4.90;;;;;;;14.12;77.82;101333.88;4976483;28;20045;-62
2023/06/06 04:21:52;;;;;;;7.57;4.80;;;;;;;14.17;77.87;101336.38;4979489;28;20034;-61
2023/06/06 04:24:17;;;;;;;8.75;6.15;;;;;;;14.23;78.08;101341.50;4978778;28;20034;-61
2023/06/06 04:26:43;;;;;;;7.82;5.05;;;;;;;14.28;77.86;101339.69;4979250;28;20470;-61
2023/06/06 04:29:08;;;;;;;7.90;5.03;;;;;;;14.34;77.73;101337.88;4978748;28;20101;-61
2023/06/06 04:31:35;;;;;;;8.18;5.75;;;;;;;14.41;77.83;101349.09;4978175;28;20461;-61
2023/06/06 04:34:01;;;;;;;8.68;5.38;;;;;;;14.47;77.57;101347.25;4979300;28;20491;-61
2023/06/06 04:36:26;;;;;;;9.90;5.68;;;;;;;14.53;77.50;101347.16;4977585;28;20157;-62
2023/06/06 04:38:53;;;;;;;8.15;5.50;;;;;;;14.59;77.53;101349.66;4976416;28;20038;-62
2023/06/06 04:41:22;;;;;;;10.38;5.45;;;;;;;14.65;77.27;101343.50;4979036;28;20096;-62
2023/06/06 04:43:49;;;;;;;8.50;6.05;;;;;;;14.70;77.45;101340.81;4977714;28;20057;-62
2023/06/06 04:46:21;;;;;;;11.68;6.63;;;;;;;14.75;77.55;101341.63;4978465;28;20034;-62
2023/06/06 04:48:53;;;;;;;9.50;6.15;;;;;;;14.81;77.31;101344.97;4979137;28;20037;-62
2023/06/06 04:51:29;;;;;;;12.57;5.60;;;;;;;14.87;77.12;101337.06;4979004;28;20146;-62
2023/06/06 04:53:58;;;;;;;9.48;5.35;;;;;;;14.95;77.19;101335.19;4979688;28;20034;-61
2023/06/06 04:56:26;;;;;;;10.18;6.45;;;;;;;15.03;77.33;101332.44;4976307;28;20046;-62
2023/06/06 04:58:53;;;;;;;11.95;7.03;;;;;;;15.07;77.17;101336.72;4975301;28;20041;-62
2023/06/06 05:01:18;;;;;;;10.45;7.10;;;;;;;15.11;77.58;101338.38;4970829;28;20034;-62
2023/06/06 05:03:44;;;;;;;10.13;6.82;;;;;;;15.15;77.54;101332.25;4975456;28;20041;-62
2023/06/06 05:06:10;;;;;;;9.13;6.70;;;;;;;15.19;77.77;101342.59;4975336;28;20042;-62
2023/06/06 05:08:40;;;;;;;13.48;8.48;;;;;;;15.23;77.89;101342.53;4973081;28;20034;-62
2023/06/06 05:11:05;;;;;;;12.73;6.55;;;;;;;15.28;77.23;101343.28;4977759;28;20718;-62
2023/06/06 05:13:30;;;;;;;13.60;7.32;;;;;;;15.37;77.62;101337.91;4980566;28;20126;-62
2023/06/06 05:15:56;;;;;;;10.95;7.00;;;;;;;15.43;77.47;101340.41;4979150;28;20038;-62
2023/06/06 05:18:22;;;;;;;11.68;7.18;;;;;;;15.46;77.43;101337.75;4977059;28;20121;-62
2023/06/06 05:20:47;;;;;;;12.50;7.47;;;;;;;15.50;77.07;101342.00;4976217;28;20121;-62
2023/06/06 05:23:12;;;;;;;10.98;6.95;;;;;;;15.55;77.72;101340.19;4975443;28;20046;-62
2023/06/06 05:25:38;;;;;;;14.85;7.50;;;;;;;15.60;77.51;101339.19;4977877;28;20042;-62
2023/06/06 05:28:03;;;;;;;9.30;6.38;;;;;;;15.68;77.24;101344.28;4970837;28;20062;-62
2023/06/06 05:30:28;;;;;;;14.68;11.20;;;;;;;15.74;77.08;101344.16;4972346;28;20478;-62
2023/06/06 05:32:54;;;;;;;18.88;10.73;;;;;;;15.80;76.97;101346.63;4975783;28;20104;-62
2023/06/06 05:35:19;;;;;;;12.88;8.93;;;;;;;15.84;77.20;101334.41;4978234;28;20211;-62
2023/06/06 05:37:44;;;;;;;14.98;8.13;;;;;;;15.90;77.01;101339.47;4976031;28;20039;-62
2023/06/06 05:40:10;;;;;;;11.15;7.57;;;;;;;15.95;76.64;101348.06;4972869;28;20504;-62
2023/06/06 05:42:36;;;;;;;12.13;8.07;;;;;;;16.02;76.81;101340.09;4977671;28;20117;-62
2023/06/06 05:45:02;;;;;;;13.73;8.18;;;;;;;16.09;76.31;101344.25;4976909;28;20538;-63
2023/06/06 05:47:27;;;;;;;13.85;7.78;;;;;;;16.16;76.04;101347.59;4979909;28;20049;-62
2023/06/06 05:49:52;;;;;;;14.63;9.57;;;;;;;16.17;75.39;101352.81;4978843;28;20041;-63
2023/06/06 05:52:18;;;;;;;12.40;7.80;;;;;;;16.21;75.53;101351.81;4978810;28;20030;-63
2023/06/06 05:54:43;;;;;;;15.60;8.13;;;;;;;16.28;75.08;101342.13;4973498;28;20146;-63
2023/06/06 05:57:22;;;;;;;12.60;8.27;;;;;;;16.31;75.37;101345.53;4972679;28;20043;-62
2023/06/06 05:59:48;;;;;;;12.07;7.35;;;;;;;16.37;75.01;101339.28;4979278;28;20033;-62
2023/06/06 06:02:14;;;;;;;13.30;7.95;;;;;;;16.42;75.16;101341.78;4976938;28;20112;-62
2023/06/06 06:04:42;;;;;;;15.23;9.10;;;;;;;16.48;75.58;101341.66;4982125;28;20046;-62
2023/06/06 06:07:08;;;;;;;12.38;8.02;;;;;;;16.53;75.84;101348.50;4975259;28;20088;-62
2023/06/06 06:09:34;;;;;;;15.70;9.15;;;;;;;16.54;75.79;101349.34;4968919;28;20031;-62
2023/06/06 06:11:59;;;;;;;14.10;9.40;;;;;;;16.62;75.64;101335.19;4972602;28;20054;-63
2023/06/06 06:14:25;;;;;;;12.93;8.80;;;;;;;16.72;75.53;101339.31;4974544;28;20034;-63
2023/06/06 06:16:50;;;;;;;15.75;8.73;;;;;;;16.82;74.97;101337.38;4975398;28;20046;-63
2023/06/06 06:19:15;;;;;;;14.80;8.63;;;;;;;16.91;74.86;101339.75;4975884;28;20121;-63
2023/06/06 06:21:41;;;;;;;10.48;7.93;;;;;;;16.97;74.40;101341.34;4973109;28;20758;-62
2023/06/06 06:24:07;;;;;;;13.20;8.15;;;;;;;17.00;73.32;101330.84;4975764;28;20161;-62
2023/06/06 06:26:32;;;;;;;14.48;8.73;;;;;;;17.04;72.46;101324.66;4971753;28;20132;-63
2023/06/06 06:28:58;;;;;;;14.50;8.70;;;;;;;17.10;73.10;101330.53;4975635;28;20046;-63
2023/06/06 06:31:23;;;;;;;20.40;9.50;;;;;;;17.15;73.41;101349.59;4976215;28;20129;-62
2023/06/06 06:33:49;;;;;;;14.57;9.60;;;;;;;17.20;72.88;101339.00;4976804;28;20031;-62
2023/06/06 06:36:14;;;;;;;14.90;8.43;;;;;;;17.23;72.66;101337.19;4970338;28;20045;-63
2023/06/06 06:38:40;;;;;;;14.27;9.13;;;;;;;17.34;73.17;101345.56;4970509;28;20061;-63
2023/06/06 06:41:05;;;;;;;14.95;9.60;;;;;;;17.41;72.88;101347.13;4977266;28;20057;-62
2023/06/06 06:43:31;;;;;;;16.42;9.27;;;;;;;17.52;72.26;101346.81;4981423;28;20034;-68
2023/06/06 06:45:56;;;;;;;16.13;8.93;;;;;;;17.60;71.58;101344.84;4977881;28;20037;-68
2023/06/06 06:48:21;;;;;;;16.77;9.75;;;;;;;17.64;70.77;101329.94;4975646;28;20050;-66
2023/06/06 06:50:47;;;;;;;14.75;8.93;;;;;;;17.73;70.67;101335.78;4976680;28;20045;-67
2023/06/06 06:53:13;;;;;;;16.05;10.23;;;;;;;17.77;70.26;101332.19;4979243;28;20128;-63
2023/06/06 06:55:41;;;;;;;13.38;8.57;;;;;;;17.86;69.64;101323.25;4982118;28;20049;-62
2023/06/06 06:58:06;;;;;;;17.38;8.35;;;;;;;17.89;68.83;101329.25;4985190;28;20897;-63
2023/06/06 07:00:33;;;;;;;16.60;9.68;;;;;;;18.00;69.79;101339.38;4973354;28;20054;-63
2023/06/06 07:02:59;;;;;;;15.50;9.63;;;;;;;18.09;69.78;101333.00;4968407;28;20138;-63
2023/06/06 07:05:25;;;;;;;13.15;9.20;;;;;;;18.17;69.52;101336.25;4969527;28;20061;-63
2023/06/06 07:07:53;;;;;;;15.95;9.30;;;;;;;18.26;69.36;101333.34;4981767;28;20578;-63
2023/06/06 07:10:20;;;;;;;14.82;9.70;;;;;;;18.37;68.52;101326.03;4978444;28;20038;-63
2023/06/06 07:12:49;;;;;;;19.05;10.75;;;;;;;18.43;68.07;101315.38;4984096;28;20038;-63
2023/06/06 07:15:15;;;;;;;15.50;9.85;;;;;;;18.47;67.93;101316.97;4983500;28;20130;-63
2023/06/06 07:17:46;;;;;;;14.35;8.52;;;;;;;18.56;68.17;101326.28;4982843;28;20081;-62
2023/06/06 07:20:11;;;;;;;18.63;9.95;;;;;;;18.60;67.00;101310.44;4978179;28;20092;-63
2023/06/06 07:22:37;;;;;;;16.65;9.75;;;;;;;18.68;67.52;101325.88;4977757;28;20732;-63
2023/06/06 07:25:04;;;;;;;15.38;9.00;;;;;;;18.76;67.84;101323.91;4987787;28;20042;-63
2023/06/06 07:27:33;;;;;;;21.63;10.02;;;;;;;18.84;67.54;101321.88;4983515;28;20034;-63
2023/06/06 07:29:59;;;;;;;16.02;9.75;;;;;;;18.91;67.46;101323.38;4979138;28;20684;-64
2023/06/06 07:32:25;;;;;;;16.55;9.52;;;;;;;18.96;67.55;101317.13;4980521;28;20161;-63
2023/06/06 07:34:50;;;;;;;16.55;9.82;;;;;;;19.03;67.49;101315.13;4979156;28;20196;-63
2023/06/06 07:37:16;;;;;;;18.52;10.18;;;;;;;19.10;66.28;101300.91;4980310;28;20404;-63
2023/06/06 07:39:43;;;;;;;16.55;10.13;;;;;;;19.20;65.47;101283.09;4974489;28;20037;-63
2023/06/06 07:42:09;;;;;;;16.13;10.32;;;;;;;19.32;65.41;101288.75;4978318;28;20070;-63
2023/06/06 07:44:34;;;;;;;17.52;10.50;;;;;;;19.37;65.55;101281.59;4983436;28;20070;-63
2023/06/06 07:47:00;;;;;;;17.92;10.80;;;;;;;19.47;65.49;101285.56;4981138;28;20045;-63
2023/06/06 07:49:25;;;;;;;20.65;10.60;;;;;;;19.55;65.43;101291.41;4978996;28;20093;-63
2023/06/06 07:51:50;;;;;;;16.35;10.48;;;;;;;19.59;64.32;101279.03;4978187;28;20034;-63
2023/06/06 07:54:16;;;;;;;17.10;10.40;;;;;;;19.72;64.17;101272.41;4983457;28;20038;-63
2023/06/06 07:56:43;;;;;;;14.90;9.98;;;;;;;19.86;63.91;101282.41;4978130;28;20081;-63
2023/06/06 07:59:09;;;;;;;19.13;11.40;;;;;;;19.88;63.48;101260.44;4977564;28;20095;-63
2023/06/06 08:01:35;;;;;;;18.70;10.70;;;;;;;20.01;62.82;101264.28;4974783;28;20231;-64
2023/06/06 08:04:01;;;;;;;19.08;11.63;;;;;;;20.13;62.54;101260.31;4977623;28;20125;-65
2023/06/06 08:06:27;;;;;;;19.35;10.93;;;;;;;20.20;62.05;101255.69;4979748;28;21776;-64
2023/06/06 08:08:53;;;;;;;17.45;9.38;;;;;;;20.26;61.89;101256.31;4972526;28;20579;-63
2023/06/06 08:11:19;;;;;;;15.15;10.48;;;;;;;20.35;61.95;101255.06;4980162;28;20092;-63
2023/06/06 08:13:45;;;;;;;16.30;10.60;;;;;;;20.39;61.70;101260.16;4983297;28;20082;-63
2023/06/06 08:16:10;;;;;;;15.93;9.38;;;;;;;20.49;61.90;101261.47;4981684;28;20062;-63
2023/06/06 08:18:38;;;;;;;18.33;8.77;;;;;;;20.60;61.25;101247.91;4981783;28;20744;-64
2023/06/06 08:21:03;;;;;;;15.75;9.00;;;;;;;20.70;60.97;101251.88;4977909;28;20053;-63
2023/06/06 08:23:29;;;;;;;16.13;9.35;;;;;;;20.80;59.98;101232.19;4978338;28;20034;-63
2023/06/06 08:25:55;;;;;;;17.50;9.93;;;;;;;20.94;58.82;101226.31;4979445;28;20096;-63
2023/06/06 08:28:24;;;;;;;15.05;9.48;;;;;;;21.00;57.03;101220.78;4980468;28;20077;-63
2023/06/06 08:30:51;;;;;;;16.08;7.82;;;;;;;20.99;56.38;101211.19;4979092;28;20161;-62
2023/06/06 08:33:18;;;;;;;9.93;6.72;;;;;;;21.03;55.79;101213.63;4983813;28;20078;-62
2023/06/06 08:35:43;;;;;;;9.68;5.38;;;;;;;20.95;54.28;101194.72;4981690;28;20585;-62
2023/06/06 08:38:09;;;;;;;9.65;5.32;;;;;;;20.91;54.26;101201.03;4976107;28;20039;-63
2023/06/06 08:40:34;;;;;;;9.77;5.28;;;;;;;21.05;55.19;101221.44;4976153;28;20460;-63
2023/06/06 08:43:01;;;;;;;8.23;4.78;;;;;;;21.27;54.00;101202.00;4979237;28;20026;-63
2023/06/06 08:45:26;;;;;;;7.10;4.68;;;;;;;21.41;52.09;101179.47;4980177;28;20647;-63
2023/06/06 08:47:54;;;;;;;11.70;4.72;;;;;;;21.52;51.32;101177.22;4981533;28;20062;-63
2023/06/06 08:50:23;;;;;;;10.18;4.63;;;;;;;21.53;51.18;101182.38;4983492;28;20121;-62
2023/06/06 08:52:50;;;;;;;12.07;4.47;;;;;;;21.68;49.69;101175.56;4980343;28;20038;-62
2023/06/06 08:55:15;;;;;;;8.70;4.97;;;;;;;21.72;50.16;101187.69;4979422;28;20041;-62
2023/06/06 08:57:43;;;;;;;9.63;4.75;;;;;;;21.77;49.36;101176.00;4983257;28;20476;-63
2023/06/06 09:00:20;;;;;;;5.47;4.13;;;;;;;21.82;50.19;101185.47;4977704;28;20046;-63
2023/06/06 09:02:47;;;;;;;5.93;4.45;;;;;;;21.90;50.18;101188.56;4975565;28;20463;-63
2023/06/06 09:05:17;;;;;;;10.88;6.13;;;;;;;22.03;51.05;101208.09;4979736;28;20042;-62
2023/06/06 09:07:42;;;;;;;13.15;5.95;;;;;;;22.22;51.06;101212.41;4978662;28;20057;-63
2023/06/06 09:10:08;;;;;;;9.00;5.75;;;;;;;22.15;51.39;101215.41;4977176;28;20500;-63
2023/06/06 09:12:46;;;;;;;11.55;6.40;;;;;;;22.25;50.94;101209.63;4980134;28;20053;-63
2023/06/06 09:15:12;;;;;;;10.23;6.32;;;;;;;22.33;50.81;101199.53;4976581;28;20082;-63
2023/06/06 09:17:38;;;;;;;10.65;5.78;;;;;;;22.47;51.58;101213.84;4977321;28;20436;-63
2023/06/06 09:20:08;;;;;;;10.40;5.60;;;;;;;22.57;50.45;101199.25;4973808;28;20042;-63
2023/06/06 09:22:40;;;;;;;10.02;5.88;;;;;;;22.68;49.99;101196.97;4973730;28;20052;-64
2023/06/06 09:25:25;;;;;;;10.60;5.63;;;;;;;22.78;50.52;101201.66;4976037;28;20042;-64
2023/06/06 09:27:58;;;;;;;14.02;5.15;;;;;;;22.92;49.36;101180.69;4975492;28;20497;-62
2023/06/06 09:30:25;;;;;;;10.27;5.88;;;;;;;23.06;48.88;101172.06;4971212;28;20046;-63
2023/06/06 09:33:00;;;;;;;14.68;6.10;;;;;;;23.01;47.58;101165.31;4991584;28;20042;-63
2023/06/06 09:35:29;;;;;;;9.60;4.45;;;;;;;23.23;47.34;101168.53;4978561;28;20037;-62
2023/06/06 09:37:56;;;;;;;12.55;5.63;;;;;;;23.19;47.51;101161.72;4978898;28;20057;-62
2023/06/06 09:40:22;;;;;;;8.70;5.28;;;;;;;23.30;46.60;101154.94;4979705;28;20042;-63
2023/06/06 09:42:48;;;;;;;13.40;5.25;;;;;;;23.15;46.46;101163.66;4980026;28;20554;-63
2023/06/06 09:45:19;;;;;;;10.70;6.78;;;;;;;23.25;48.40;101193.03;4980836;28;20642;-63
2023/06/06 09:47:48;;;;;;;8.77;6.45;;;;;;;23.31;48.39;101185.66;4979699;28;20395;-62
2023/06/06 09:50:15;;;;;;;11.75;6.13;;;;;;;23.43;46.29;101170.94;4977779;28;20104;-63
2023/06/06 09:52:41;;;;;;;9.13;5.20;;;;;;;23.42;45.33;101140.25;4981706;28;20058;-62
2023/06/06 09:55:15;;;;;;;9.82;5.22;;;;;;;23.57;44.91;101141.16;4978030;28;20055;-63
2023/06/06 09:57:41;;;;;;;8.15;4.65;;;;;;;23.71;44.00;101139.44;4980313;28;20041;-64
2023/06/06 10:00:14;;;;;;;11.50;4.75;;;;;;;23.70;42.96;101126.31;4977663;28;20039;-63
2023/06/06 10:02:43;;;;;;;10.10;4.82;;;;;;;23.86;42.29;101124.53;4977295;28;20052;-63
2023/06/06 10:05:14;;;;;;;7.32;4.32;;;;;;;24.03;41.42;101127.06;4977657;28;20185;-63
2023/06/06 10:07:44;;;;;;;10.75;4.40;;;;;;;24.17;41.24;101123.59;4975666;28;20113;-63
2023/06/06 10:10:12;;;;;;;11.43;4.40;;;;;;;24.25;40.72;101119.59;4974789;28;20102;-63
2023/06/06 10:12:39;;;;;;;6.85;4.30;;;;;;;24.40;40.74;101112.53;4978827;28;20042;-62
2023/06/06 10:15:07;;;;;;;8.32;4.60;;;;;;;24.39;41.33;101138.09;4976909;28;20125;-63
2023/06/06 10:17:36;;;;;;;14.98;4.50;;;;;;;24.34;42.62;101144.63;4977131;28;20487;-65
2023/06/06 10:20:06;;;;;;;12.35;4.22;;;;;;;24.62;42.24;101141.16;4971495;28;20069;-63
2023/06/06 10:22:33;;;;;;;8.30;4.43;;;;;;;24.69;41.07;101127.50;4976435;28;20050;-63
2023/06/06 10:24:58;;;;;;;10.60;4.63;;;;;;;24.71;41.34;101138.84;4978215;28;20038;-63
2023/06/06 10:27:29;;;;;;;8.93;4.60;;;;;;;24.69;40.44;101124.88;4979259;28;20728;-64
2023/06/06 10:30:06;;;;;;;10.88;4.72;;;;;;;24.80;40.24;101118.91;4982192;28;20034;-63
2023/06/06 10:32:58;;;;;;;8.63;4.72;;;;;;;24.77;39.93;101119.09;4984225;28;20034;-63
2023/06/06 10:35:25;;;;;;;8.05;3.90;;;;;;;24.91;39.67;101106.72;4981688;28;20036;-63
2023/06/06 10:38:05;;;;;;;7.45;3.75;;;;;;;25.08;38.93;101110.97;4982627;28;20219;-62
2023/06/06 10:40:49;;;;;;;6.53;3.78;;;;;;;25.15;40.01;101122.00;4975614;28;20096;-64
2023/06/06 10:43:15;;;;;;;6.10;4.30;;;;;;;25.17;38.63;101102.47;4982924;28;20038;-63
2023/06/06 10:45:45;;;;;;;11.10;4.18;;;;;;;25.43;39.06;101112.25;4979851;28;20030;-64
2023/06/06 10:48:13;;;;;;;7.82;4.10;;;;;;;25.57;38.54;101096.31;4981702;28;20778;-63
2023/06/06 10:50:52;;;;;;;6.00;3.80;;;;;;;25.69;38.21;101099.97;4983947;28;20503;-63
2023/06/06 10:53:17;;;;;;;6.05;3.55;;;;;;;25.73;37.63;101097.97;4978046;28;20145;-63
2023/06/06 10:55:46;;;;;;;7.15;4.03;;;;;;;25.79;36.16;101085.19;4980869;28;20038;-63
2023/06/06 10:58:33;;;;;;;7.65;4.68;;;;;;;25.66;36.71;101094.00;4977959;28;20034;-64
2023/06/06 11:01:06;;;;;;;9.45;4.05;;;;;;;25.81;37.04;101093.00;4973969;28;20030;-63
2023/06/06 11:03:37;;;;;;;6.35;3.88;;;;;;;25.96;35.55;101074.28;4977155;28;20104;-63
2023/06/06 11:06:04;;;;;;;9.80;4.22;;;;;;;26.16;36.12;101089.72;4977125;28;20046;-63
2023/06/06 11:08:37;;;;;;;6.40;4.03;;;;;;;26.35;36.34;101101.72;4957712;28;20753;-63
2023/06/06 11:11:15;;;;;;;6.88;3.92;;;;;;;26.54;36.20;101091.56;4979292;28;20038;-63
2023/06/06 11:14:01;;;;;;;9.15;4.13;;;;;;;26.45;36.18;101097.50;4978338;28;20526;-63
2023/06/06 11:16:31;;;;;;;7.15;3.85;;;;;;;26.63;35.26;101094.41;4980219;28;20145;-63
2023/06/06 11:19:04;;;;;;;6.32;3.53;;;;;;;26.68;36.14;101094.94;4978022;28;20045;-63
2023/06/06 11:21:31;;;;;;;6.43;3.80;;;;;;;26.70;35.63;101092.19;4976342;28;20069;-64
2023/06/06 11:23:58;;;;;;;7.43;3.50;;;;;;;27.00;35.50;101091.84;4985244;28;20404;-64